Time;durP1;ratioP1;P1;durP2;ratioP2;P2;SDS_P1;SDS_P2;PMS_P1;PMS_P2;Temp;Humidity;BMP_temperature;BMP_pressure;BME280_temperature;BME280_humidity;BME280_pressure;Samples;Min_cycle;Max_cycle;Signal;HPM_P1;HPM_P2
2020/12/30 00:01:33;;;;;;;8.93;4.22;;;3.50;99.90;;;;;;5048611;28;20282;-85
2020/12/30 00:04:00;;;;;;;3.95;3.55;;;3.40;99.90;;;;;;5049720;28;20230;-83
2020/12/30 00:06:26;;;;;;;5.63;4.40;;;3.40;99.90;;;;;;5032941;28;20308;-84
2020/12/30 00:08:53;;;;;;;5.20;4.22;;;3.40;99.90;;;;;;5029067;28;20239;-83
2020/12/30 00:11:20;;;;;;;5.05;4.25;;;3.50;99.90;;;;;;5045274;28;20235;-84
2020/12/30 00:13:46;;;;;;;3.55;3.00;;;3.50;99.90;;;;;;5049873;28;20210;-87
2020/12/30 00:16:12;;;;;;;4.13;3.30;;;3.40;99.90;;;;;;5043040;28;20204;-84
2020/12/30 00:18:40;;;;;;;4.00;2.95;;;3.50;99.90;;;;;;5045116;28;20259;-84
2020/12/30 00:21:06;;;;;;;6.05;2.80;;;3.40;99.90;;;;;;5042800;28;20282;-83
2020/12/30 00:23:33;;;;;;;4.68;3.20;;;3.30;99.90;;;;;;5043168;28;20294;-85
2020/12/30 00:25:59;;;;;;;5.13;3.10;;;3.40;99.90;;;;;;5029335;28;20204;-84
2020/12/30 00:28:26;;;;;;;3.88;2.25;;;3.30;99.90;;;;;;5026712;28;20228;-83
2020/12/30 00:30:52;;;;;;;3.35;2.80;;;3.40;99.90;;;;;;5034921;28;20246;-84
2020/12/30 00:33:19;;;;;;;4.05;3.00;;;3.50;99.90;;;;;;5035280;28;20222;-86
2020/12/30 00:35:46;;;;;;;6.82;3.63;;;3.50;99.90;;;;;;5036361;28;20268;-87
2020/12/30 00:38:13;;;;;;;5.47;3.60;;;3.50;99.90;;;;;;5036478;28;20263;-87
2020/12/30 00:40:39;;;;;;;3.97;2.63;;;3.60;99.90;;;;;;5037369;28;20241;-83
2020/12/30 00:43:06;;;;;;;3.63;2.60;;;3.80;99.90;;;;;;5037636;28;20196;-81
2020/12/30 00:45:33;;;;;;;3.97;2.28;;;3.80;99.60;;;;;;5037436;28;20231;-85
2020/12/30 00:47:59;;;;;;;3.05;2.78;;;3.90;98.90;;;;;;5037197;28;20276;-84
2020/12/30 00:50:26;;;;;;;3.67;2.40;;;3.90;98.20;;;;;;5044968;28;20214;-84
2020/12/30 00:52:53;;;;;;;2.63;2.20;;;3.70;97.80;;;;;;5056296;28;20273;-83
2020/12/30 00:55:19;;;;;;;3.63;2.20;;;3.80;98.00;;;;;;5056136;28;20218;-84
2020/12/30 00:57:46;;;;;;;2.30;2.10;;;3.80;97.80;;;;;;5042160;28;20206;-84
2020/12/30 01:00:12;;;;;;;5.72;2.30;;;3.80;97.90;;;;;;5036854;28;20223;-83
2020/12/30 01:02:39;;;;;;;3.88;2.58;;;3.80;97.80;;;;;;5025486;28;20739;-84
2020/12/30 01:05:05;;;;;;;2.58;2.00;;;3.80;98.00;;;;;;5039583;28;20235;-84
2020/12/30 01:07:32;;;;;;;2.80;1.80;;;3.90;98.00;;;;;;5039163;28;20223;-83
2020/12/30 01:09:59;;;;;;;6.40;2.70;;;3.90;97.90;;;;;;5039294;28;20204;-84
2020/12/30 01:12:25;;;;;;;3.03;2.28;;;3.90;97.60;;;;;;5030618;28;20252;-84
2020/12/30 01:14:52;;;;;;;3.25;2.10;;;3.90;97.70;;;;;;5034340;28;20212;-84
2020/12/30 01:17:18;;;;;;;4.15;2.78;;;3.90;97.60;;;;;;5036151;28;20269;-84
2020/12/30 01:19:45;;;;;;;3.35;2.50;;;3.90;97.40;;;;;;5050752;28;20210;-84
2020/12/30 01:22:11;;;;;;;7.93;2.35;;;3.90;97.40;;;;;;5051548;28;20248;-84
2020/12/30 01:24:37;;;;;;;2.72;2.10;;;3.90;97.40;;;;;;5059112;28;20207;-84
2020/12/30 01:27:05;;;;;;;3.38;2.00;;;3.90;97.50;;;;;;5059573;28;20223;-81
2020/12/30 01:29:31;;;;;;;2.78;2.03;;;3.90;97.70;;;;;;5055476;28;20279;-82
2020/12/30 01:31:58;;;;;;;2.97;2.10;;;4.00;97.70;;;;;;5057291;28;20228;-86
2020/12/30 01:34:24;;;;;;;2.78;2.30;;;4.10;97.90;;;;;;5047677;28;20204;-88
2020/12/30 01:36:54;;;;;;;2.55;2.35;;;4.10;97.60;;;;;;5036537;28;20205;-84
2020/12/30 01:39:22;;;;;;;4.45;2.00;;;4.10;97.30;;;;;;5038500;28;20214;-84
2020/12/30 01:41:49;;;;;;;3.65;2.03;;;4.20;97.10;;;;;;5053261;28;20260;-84
2020/12/30 01:44:16;;;;;;;2.33;1.83;;;4.20;96.90;;;;;;5057935;28;20188;-83
2020/12/30 01:46:44;;;;;;;2.80;2.35;;;4.20;96.60;;;;;;5054378;28;20626;-83
2020/12/30 01:49:13;;;;;;;3.78;1.77;;;4.30;96.90;;;;;;5053001;28;20232;-84
2020/12/30 01:51:40;;;;;;;2.13;1.92;;;4.30;96.70;;;;;;5059222;28;20407;-83
2020/12/30 01:54:10;;;;;;;2.67;2.00;;;4.30;96.60;;;;;;5046290;28;20211;-83
2020/12/30 01:56:37;;;;;;;2.17;1.67;;;4.30;96.60;;;;;;5039246;28;20208;-83
2020/12/30 01:59:06;;;;;;;3.85;2.00;;;4.30;96.60;;;;;;5039309;28;20197;-84
2020/12/30 02:01:37;;;;;;;2.88;1.80;;;4.30;95.90;;;;;;5033200;28;20236;-83
2020/12/30 02:04:05;;;;;;;2.83;2.10;;;4.30;95.60;;;;;;5024059;28;20243;-84
2020/12/30 02:06:34;;;;;;;4.13;1.95;;;4.30;95.80;;;;;;5026554;28;20236;-83
2020/12/30 02:09:03;;;;;;;1.60;1.50;;;4.40;95.50;;;;;;5033676;28;20644;-84
2020/12/30 02:11:30;;;;;;;1.52;1.30;;;4.40;95.20;;;;;;5045945;28;20228;-84
2020/12/30 02:14:01;;;;;;;2.90;1.73;;;4.40;94.80;;;;;;5037362;28;20300;-84
2020/12/30 02:16:28;;;;;;;3.92;1.30;;;4.50;94.30;;;;;;5028235;28;20204;-84
2020/12/30 02:18:55;;;;;;;3.50;1.70;;;4.50;93.60;;;;;;5038352;28;20204;-84
2020/12/30 02:21:21;;;;;;;2.10;1.73;;;4.50;93.20;;;;;;5051284;28;20250;-84
2020/12/30 02:23:50;;;;;;;2.25;1.50;;;4.40;93.20;;;;;;5055915;28;20229;-83
2020/12/30 02:26:18;;;;;;;1.83;1.40;;;4.50;93.20;;;;;;5055843;28;20197;-85
2020/12/30 02:28:45;;;;;;;1.70;1.60;;;4.50;92.50;;;;;;5045704;28;20656;-84
2020/12/30 02:31:11;;;;;;;2.30;1.60;;;4.50;92.50;;;;;;5033223;28;20229;-84
2020/12/30 02:33:37;;;;;;;2.92;2.05;;;4.60;91.90;;;;;;5036342;28;20219;-82
2020/12/30 02:36:04;;;;;;;2.95;1.50;;;4.60;91.60;;;;;;5043861;28;20631;-83
2020/12/30 02:38:30;;;;;;;2.70;1.80;;;4.60;91.40;;;;;;5041802;28;20668;-83
2020/12/30 02:40:59;;;;;;;2.95;1.55;;;4.60;90.80;;;;;;5043498;28;20224;-83
2020/12/30 02:43:27;;;;;;;1.90;1.40;;;4.60;90.30;;;;;;5046059;28;20207;-82
2020/12/30 02:45:53;;;;;;;3.55;1.60;;;4.60;90.10;;;;;;5055091;28;20204;-84
2020/12/30 02:48:23;;;;;;;2.10;1.65;;;4.50;90.20;;;;;;5046513;28;20354;-82
2020/12/30 02:50:49;;;;;;;1.40;1.30;;;4.50;90.40;;;;;;5033560;28;20231;-85
2020/12/30 02:53:16;;;;;;;2.33;1.52;;;4.60;90.10;;;;;;5036234;28;20184;-84
2020/12/30 02:55:42;;;;;;;2.85;1.35;;;4.60;89.30;;;;;;5051607;28;20271;-84
2020/12/30 02:58:09;;;;;;;1.35;1.20;;;4.60;89.30;;;;;;5051285;28;20230;-84
2020/12/30 03:00:37;;;;;;;1.30;0.90;;;4.70;89.30;;;;;;5047071;28;20204;-84
2020/12/30 03:03:03;;;;;;;3.78;1.25;;;4.60;88.20;;;;;;5047574;28;20197;-83
2020/12/30 03:05:30;;;;;;;2.35;1.25;;;4.60;88.80;;;;;;5046391;28;20216;-84
2020/12/30 03:08:04;;;;;;;1.63;0.98;;;4.60;88.80;;;;;;5044461;28;20284;-84
2020/12/30 03:10:35;;;;;;;2.53;1.10;;;4.70;88.10;;;;;;5046183;28;20584;-84
2020/12/30 03:13:01;;;;;;;1.30;1.20;;;4.70;88.00;;;;;;5044300;28;20197;-84
2020/12/30 03:15:28;;;;;;;1.30;1.20;;;4.70;86.60;;;;;;5023784;28;20711;-84
2020/12/30 03:17:56;;;;;;;1.98;0.88;;;4.70;86.30;;;;;;5023325;28;20657;-85
2020/12/30 03:20:23;;;;;;;2.28;1.40;;;4.70;86.50;;;;;;5034469;28;20197;-82
2020/12/30 03:22:49;;;;;;;1.75;0.85;;;4.70;86.10;;;;;;5034247;28;20278;-83
2020/12/30 03:25:16;;;;;;;1.85;1.00;;;4.70;85.70;;;;;;5034111;28;20214;-88
2020/12/30 03:27:42;;;;;;;1.00;0.93;;;4.70;85.60;;;;;;5033845;28;20205;-84
2020/12/30 03:30:09;;;;;;;2.70;1.15;;;4.70;85.90;;;;;;5050109;28;20208;-83
2020/12/30 03:32:36;;;;;;;2.08;1.00;;;4.70;86.40;;;;;;5046808;28;20220;-85
2020/12/30 03:35:03;;;;;;;1.73;0.93;;;4.70;86.50;;;;;;5023806;28;20242;-84
2020/12/30 03:37:30;;;;;;;2.58;1.33;;;4.80;86.50;;;;;;5021595;28;20205;-83
2020/12/30 03:39:56;;;;;;;0.80;0.80;;;4.80;86.00;;;;;;5039771;28;20203;-84
2020/12/30 03:42:23;;;;;;;2.03;1.10;;;4.80;85.40;;;;;;5040887;28;20251;-84
2020/12/30 03:44:49;;;;;;;0.95;0.95;;;4.90;84.60;;;;;;5023968;28;20232;-83
2020/12/30 03:47:16;;;;;;;2.78;0.95;;;4.80;85.10;;;;;;5021810;28;20216;-84
2020/12/30 03:49:42;;;;;;;1.40;1.30;;;4.80;84.80;;;;;;5042974;28;20251;-85
2020/12/30 03:52:09;;;;;;;1.95;1.25;;;4.90;84.90;;;;;;5050169;28;20238;-85
2020/12/30 03:54:37;;;;;;;3.05;1.20;;;4.90;84.40;;;;;;5049025;28;20262;-85
2020/12/30 03:57:04;;;;;;;2.40;1.30;;;4.80;84.00;;;;;;5045705;28;20217;-83
2020/12/30 03:59:30;;;;;;;1.15;1.05;;;4.80;84.60;;;;;;5028273;28;20570;-83
2020/12/30 04:01:59;;;;;;;1.63;1.50;;;4.80;83.60;;;;;;5055433;22;20232;-79
2020/12/30 04:04:26;;;;;;;0.98;0.80;;;4.70;84.30;;;;;;5068239;28;20206;-79
2020/12/30 04:06:52;;;;;;;2.00;1.20;;;4.80;84.60;;;;;;5053141;28;20218;-79
2020/12/30 04:09:19;;;;;;;1.55;1.05;;;4.80;83.90;;;;;;5052531;28;20259;-79
2020/12/30 04:11:46;;;;;;;1.77;1.38;;;4.80;83.90;;;;;;5054397;28;20320;-80
2020/12/30 04:14:12;;;;;;;3.05;1.30;;;4.80;82.50;;;;;;5045291;28;20207;-81
2020/12/30 04:16:39;;;;;;;2.85;1.40;;;4.70;82.80;;;;;;5033945;28;20205;-79
2020/12/30 04:19:05;;;;;;;1.98;1.42;;;4.70;83.10;;;;;;5035177;28;20227;-79
2020/12/30 04:21:31;;;;;;;1.23;1.13;;;4.60;82.50;;;;;;5038167;28;20236;-79
2020/12/30 04:23:58;;;;;;;1.50;1.10;;;4.60;83.40;;;;;;5048879;28;20215;-80
2020/12/30 04:26:25;;;;;;;2.03;1.15;;;4.50;83.20;;;;;;5054914;28;20731;-79
2020/12/30 04:28:51;;;;;;;3.05;1.48;;;4.40;83.50;;;;;;5041911;28;20220;-79
2020/12/30 04:32:04;;;;;;;7.00;1.20;;;4.30;84.60;;;;;;5040960;28;20756;-79
2020/12/30 04:34:51;;;;;;;2.33;1.30;;;4.20;85.80;;;;;;5041146;28;20234;-79
2020/12/30 04:37:18;;;;;;;2.25;1.40;;;4.10;86.70;;;;;;5037746;28;20238;-81
2020/12/30 04:39:44;;;;;;;1.98;1.60;;;4.10;87.90;;;;;;5039263;28;20203;-81
2020/12/30 04:42:13;;;;;;;2.55;1.30;;;4.10;88.60;;;;;;5038554;28;20770;-82
2020/12/30 04:44:50;;;;;;;2.35;1.40;;;4.10;88.90;;;;;;5038864;28;20674;-81
2020/12/30 04:47:17;;;;;;;1.27;1.17;;;4.10;88.90;;;;;;5039148;28;20264;-80
2020/12/30 04:49:44;;;;;;;2.15;1.38;;;4.10;88.90;;;;;;5056106;28;20222;-82
2020/12/30 04:52:15;;;;;;;1.70;1.40;;;4.20;89.00;;;;;;5060459;28;20280;-81
2020/12/30 04:54:43;;;;;;;2.65;1.35;;;4.20;89.00;;;;;;5059484;28;20690;-80
2020/12/30 04:57:15;;;;;;;2.92;1.77;;;4.30;89.00;;;;;;5068654;28;20207;-80
2020/12/30 04:59:42;;;;;;;6.15;1.33;;;4.30;88.60;;;;;;5071832;28;20193;-80
2020/12/30 05:02:10;;;;;;;4.80;1.90;;;4.40;88.70;;;;;;5060909;28;20234;-81
2020/12/30 05:04:38;;;;;;;1.70;1.58;;;4.40;87.30;;;;;;5056642;28;20203;-79
2020/12/30 05:07:08;;;;;;;1.60;1.50;;;4.40;86.90;;;;;;5052207;28;20235;-79
2020/12/30 05:09:37;;;;;;;1.30;1.20;;;4.40;87.20;;;;;;5057274;28;20223;-80
2020/12/30 05:12:11;;;;;;;7.22;1.55;;;4.50;86.10;;;;;;5059256;28;20232;-80
2020/12/30 05:14:39;;;;;;;2.33;1.60;;;4.40;85.30;;;;;;5040957;28;20228;-80
2020/12/30 05:17:06;;;;;;;4.03;1.35;;;4.50;84.70;;;;;;5038786;28;20211;-80
2020/12/30 05:19:32;;;;;;;3.58;1.65;;;4.50;83.90;;;;;;5064212;28;20238;-81
2020/12/30 05:21:59;;;;;;;3.22;1.33;;;4.60;83.20;;;;;;5063662;28;20237;-81
2020/12/30 05:24:27;;;;;;;2.85;1.30;;;4.60;82.40;;;;;;5068382;28;20825;-80
2020/12/30 05:26:55;;;;;;;2.97;1.60;;;4.50;82.20;;;;;;5064661;28;20634;-80
2020/12/30 05:29:22;;;;;;;1.58;1.48;;;4.60;82.80;;;;;;5058582;28;20273;-80
2020/12/30 05:31:53;;;;;;;1.55;1.45;;;4.50;82.70;;;;;;5059034;28;20237;-81
2020/12/30 05:34:20;;;;;;;1.65;1.50;;;4.50;82.70;;;;;;5056356;28;20222;-80
2020/12/30 05:36:47;;;;;;;3.85;1.85;;;4.70;82.70;;;;;;5040204;28;20211;-81
2020/12/30 05:39:28;;;;;;;1.80;1.70;;;4.60;82.10;;;;;;5049502;28;20195;-81
2020/12/30 05:42:11;;;;;;;2.80;1.70;;;4.60;82.70;;;;;;5057495;28;20620;-81
2020/12/30 05:44:38;;;;;;;3.47;1.83;;;4.70;82.90;;;;;;5056128;28;20203;-81
2020/12/30 05:47:13;;;;;;;1.50;1.10;;;4.70;82.60;;;;;;5055441;28;20214;-81
2020/12/30 05:49:40;;;;;;;2.50;1.80;;;4.60;82.40;;;;;;5041112;28;20227;-81
2020/12/30 05:52:17;;;;;;;2.25;1.45;;;4.60;82.10;;;;;;5039586;28;20237;-81
2020/12/30 05:54:54;;;;;;;1.75;1.63;;;4.50;82.90;;;;;;5063296;28;20196;-80
2020/12/30 05:57:29;;;;;;;3.55;2.05;;;4.50;83.20;;;;;;5063138;28;20211;-79
2020/12/30 05:59:57;;;;;;;3.97;1.75;;;4.50;83.10;;;;;;5061441;28;20589;-80
2020/12/30 06:02:27;;;;;;;4.53;1.50;;;4.50;83.20;;;;;;5061795;28;20236;-80
2020/12/30 06:04:54;;;;;;;2.30;1.40;;;4.60;83.50;;;;;;5063030;28;20215;-80
2020/12/30 06:07:21;;;;;;;3.60;1.40;;;4.60;83.20;;;;;;5062020;28;20340;-80
2020/12/30 06:09:54;;;;;;;1.50;1.35;;;4.70;83.10;;;;;;5046036;28;20254;-80
2020/12/30 06:12:25;;;;;;;3.33;1.50;;;4.60;82.10;;;;;;5051721;28;20257;-79
2020/12/30 06:14:52;;;;;;;1.90;1.38;;;4.60;81.10;;;;;;5051069;28;20205;-80
2020/12/30 06:17:27;;;;;;;1.92;1.50;;;4.60;81.10;;;;;;5054038;28;20257;-78
2020/12/30 06:19:54;;;;;;;1.45;1.35;;;4.60;81.10;;;;;;5054836;28;20242;-79
2020/12/30 06:22:21;;;;;;;2.30;1.65;;;4.60;81.10;;;;;;5055228;28;20233;-78
2020/12/30 06:24:55;;;;;;;2.30;1.90;;;4.50;81.00;;;;;;5055652;28;20360;-79
2020/12/30 06:27:24;;;;;;;2.90;1.60;;;4.40;80.90;;;;;;5054412;28;20231;-79
2020/12/30 06:29:57;;;;;;;3.13;1.50;;;4.40;81.20;;;;;;5073471;28;20226;-78
2020/12/30 06:32:33;;;;;;;2.20;2.00;;;4.40;82.50;;;;;;5075715;28;20283;-79
2020/12/30 06:35:00;;;;;;;2.67;1.77;;;4.50;83.30;;;;;;5042937;28;20204;-79
2020/12/30 06:37:37;;;;;;;2.65;1.38;;;4.50;83.30;;;;;;5040834;28;20230;-80
2020/12/30 06:40:26;;;;;;;2.95;1.70;;;4.40;83.30;;;;;;5041138;28;20214;-79
2020/12/30 06:42:56;;;;;;;2.40;1.35;;;4.40;83.70;;;;;;5041403;28;20231;-80
2020/12/30 06:45:51;;;;;;;3.38;1.83;;;4.50;83.10;;;;;;5040707;28;20242;-80
2020/12/30 06:48:20;;;;;;;2.83;1.75;;;4.50;82.80;;;;;;5042271;28;20208;-79
2020/12/30 06:50:47;;;;;;;2.95;1.70;;;4.60;81.70;;;;;;5062411;28;20670;-80
2020/12/30 06:53:31;;;;;;;3.25;2.22;;;4.60;81.40;;;;;;5054618;28;20240;-80
2020/12/30 06:55:59;;;;;;;3.08;1.40;;;4.60;81.90;;;;;;5040312;28;20318;-80
2020/12/30 06:58:45;;;;;;;2.22;1.77;;;4.60;81.10;;;;;;5048971;28;20554;-80
2020/12/30 07:01:12;;;;;;;2.65;1.40;;;4.60;81.10;;;;;;5059499;28;20238;-79
2020/12/30 07:03:40;;;;;;;2.22;1.65;;;4.60;81.80;;;;;;5049770;28;20271;-79
2020/12/30 07:06:23;;;;;;;1.67;1.40;;;4.70;81.70;;;;;;5039698;28;20208;-79
2020/12/30 07:08:50;;;;;;;1.58;1.25;;;4.70;81.20;;;;;;5052024;28;20240;-77
2020/12/30 07:11:50;;;;;;;1.98;1.73;;;4.60;81.10;;;;;;5059947;28;20235;-80
2020/12/30 07:14:18;;;;;;;1.60;1.50;;;4.60;81.80;;;;;;5047035;28;20271;-80
2020/12/30 07:16:47;;;;;;;1.70;1.60;;;4.60;82.40;;;;;;5039800;28;20235;-81
2020/12/30 07:19:16;;;;;;;2.10;1.30;;;4.60;83.40;;;;;;5053995;28;20203;-80
2020/12/30 07:21:53;;;;;;;5.72;1.50;;;4.60;83.40;;;;;;5060859;28;20282;-80
2020/12/30 07:24:24;;;;;;;3.13;1.73;;;4.60;83.40;;;;;;5046224;28;20229;-80
2020/12/30 07:26:54;;;;;;;4.60;1.73;;;4.60;83.50;;;;;;5064700;28;20223;-80
2020/12/30 07:29:21;;;;;;;2.90;1.63;;;4.60;83.70;;;;;;5066554;28;20234;-80
2020/12/30 07:31:49;;;;;;;2.72;1.50;;;4.70;83.40;;;;;;5074079;28;20226;-80
2020/12/30 07:34:19;;;;;;;2.15;1.30;;;4.70;83.00;;;;;;5067072;28;20314;-79
2020/12/30 07:36:47;;;;;;;5.50;2.10;;;4.70;82.50;;;;;;5065576;28;20226;-80
2020/12/30 07:39:14;;;;;;;4.47;1.55;;;4.70;82.40;;;;;;5066868;28;20213;-80
2020/12/30 07:41:44;;;;;;;2.92;1.40;;;4.70;81.70;;;;;;5070084;28;20234;-80
2020/12/30 07:44:12;;;;;;;4.32;2.20;;;4.80;81.20;;;;;;5068986;28;20207;-80
2020/12/30 07:46:38;;;;;;;2.67;1.65;;;4.80;81.30;;;;;;5070929;28;20273;-81
2020/12/30 07:49:10;;;;;;;2.17;1.85;;;4.80;81.20;;;;;;5059725;28;20288;-79
2020/12/30 07:51:44;;;;;;;2.75;1.77;;;4.80;81.20;;;;;;5074833;28;20207;-80
2020/12/30 07:54:14;;;;;;;2.40;1.45;;;4.70;81.20;;;;;;5074890;28;20191;-80
2020/12/30 07:56:40;;;;;;;5.30;1.83;;;4.80;81.20;;;;;;5075478;28;20199;-79
2020/12/30 07:59:07;;;;;;;4.07;1.75;;;4.80;81.20;;;;;;5061441;28;20210;-79
2020/12/30 08:01:33;;;;;;;2.83;1.65;;;4.80;81.20;;;;;;5068988;28;20239;-79
2020/12/30 08:04:06;;;;;;;4.03;1.60;;;4.80;81.20;;;;;;5067593;28;20686;-80
2020/12/30 08:06:43;;;;;;;6.70;1.73;;;4.70;81.20;;;;;;5070486;28;20196;-80
2020/12/30 08:09:10;;;;;;;3.30;1.73;;;4.80;81.50;;;;;;5070401;28;20270;-79
2020/12/30 08:11:36;;;;;;;2.08;1.98;;;4.90;81.30;;;;;;5058132;28;20207;-80
2020/12/30 08:14:08;;;;;;;5.68;2.10;;;4.90;81.30;;;;;;5058187;28;20194;-79
2020/12/30 08:16:35;;;;;;;2.28;1.75;;;4.90;81.30;;;;;;5072712;28;20714;-81
2020/12/30 08:19:01;;;;;;;6.40;2.70;;;4.90;81.30;;;;;;5074831;28;20184;-82
2020/12/30 08:21:28;;;;;;;3.35;1.88;;;5.00;81.40;;;;;;5070972;28;20208;-80
2020/12/30 08:24:08;;;;;;;2.50;1.60;;;5.10;81.50;;;;;;5055439;28;20188;-81
2020/12/30 08:26:36;;;;;;;4.55;1.90;;;5.10;79.60;;;;;;5054202;28;20239;-79
2020/12/30 08:29:03;;;;;;;9.02;1.60;;;5.10;79.40;;;;;;5054691;28;20234;-80
2020/12/30 08:31:45;;;;;;;3.03;1.98;;;5.10;78.80;;;;;;5053878;28;20239;-80
2020/12/30 08:34:15;;;;;;;2.58;1.70;;;5.10;79.00;;;;;;5056014;28;20207;-80
2020/12/30 08:36:45;;;;;;;3.63;1.70;;;5.10;79.40;;;;;;5045785;28;20232;-80
2020/12/30 08:39:16;;;;;;;1.90;1.65;;;5.10;78.90;;;;;;5035686;28;20259;-81
2020/12/30 08:41:49;;;;;;;3.75;1.98;;;5.10;78.70;;;;;;5051815;28;20212;-80
2020/12/30 08:44:19;;;;;;;1.83;1.70;;;5.20;78.10;;;;;;5055768;28;20199;-79
2020/12/30 08:46:49;;;;;;;2.92;1.92;;;5.20;78.10;;;;;;5038953;28;20190;-83
2020/12/30 08:49:18;;;;;;;1.77;1.63;;;5.30;77.50;;;;;;5035332;28;20263;-82
2020/12/30 08:51:44;;;;;;;4.18;2.53;;;5.30;76.70;;;;;;5035626;28;20205;-81
2020/12/30 08:54:15;;;;;;;2.63;1.60;;;5.40;77.00;;;;;;5035433;28;20204;-80
2020/12/30 08:56:43;;;;;;;3.40;2.15;;;5.50;76.00;;;;;;5035255;28;20185;-81
2020/12/30 08:59:09;;;;;;;4.57;2.30;;;5.50;75.40;;;;;;5035499;28;20308;-80
2020/12/30 09:01:36;;;;;;;2.60;2.00;;;5.60;74.60;;;;;;5035342;28;20247;-80
2020/12/30 09:04:09;;;;;;;6.00;2.30;;;5.60;74.10;;;;;;5035423;28;20223;-80
2020/12/30 09:06:35;;;;;;;2.72;2.15;;;5.70;73.60;;;;;;5047704;28;20188;-79
2020/12/30 09:09:12;;;;;;;2.80;1.73;;;5.70;73.60;;;;;;5053989;28;20251;-79
2020/12/30 09:11:46;;;;;;;2.40;2.20;;;5.70;72.40;;;;;;5054260;28;20322;-80
2020/12/30 09:14:14;;;;;;;3.45;1.75;;;5.60;73.50;;;;;;5034757;28;20192;-80
2020/12/30 09:16:57;;;;;;;4.40;2.35;;;5.70;73.60;;;;;;5022203;28;20217;-79
2020/12/30 09:19:24;;;;;;;4.40;1.88;;;5.90;73.80;;;;;;5026626;28;20277;-81
2020/12/30 09:21:50;;;;;;;3.17;2.63;;;5.80;72.70;;;;;;5038097;28;20221;-80
2020/12/30 09:24:17;;;;;;;1.92;1.70;;;6.00;73.90;;;;;;5055172;28;20367;-80
2020/12/30 09:26:44;;;;;;;5.75;2.15;;;6.10;73.90;;;;;;5057859;28;20232;-81
2020/12/30 09:29:19;;;;;;;4.85;1.83;;;6.30;72.50;;;;;;5057800;28;20216;-80
2020/12/30 09:31:56;;;;;;;2.78;1.85;;;6.40;70.90;;;;;;5054924;28;20224;-80
2020/12/30 09:34:25;;;;;;;3.40;1.85;;;6.50;70.00;;;;;;5052844;28;20289;-79
2020/12/30 09:36:56;;;;;;;5.15;2.00;;;6.60;69.90;;;;;;5042366;28;20202;-79
2020/12/30 09:39:22;;;;;;;2.78;1.30;;;6.60;68.00;;;;;;5042899;28;20208;-80
2020/12/30 09:41:50;;;;;;;3.95;2.67;;;6.60;67.10;;;;;;5042434;28;20252;-81
2020/12/30 09:44:16;;;;;;;2.35;1.85;;;6.60;67.70;;;;;;5043568;28;20219;-80
2020/12/30 09:46:50;;;;;;;4.97;2.40;;;6.60;67.40;;;;;;5051371;28;20272;-79
2020/12/30 09:49:17;;;;;;;5.05;1.80;;;6.70;67.70;;;;;;5053649;28;20231;-78
2020/12/30 09:51:43;;;;;;;3.97;1.92;;;6.60;66.10;;;;;;5048975;28;20237;-80
2020/12/30 09:54:09;;;;;;;3.42;1.80;;;6.50;65.70;;;;;;5055565;28;20213;-80
2020/12/30 09:56:36;;;;;;;8.23;2.17;;;6.60;67.70;;;;;;5053466;28;20228;-80
2020/12/30 09:59:03;;;;;;;2.75;2.03;;;6.70;67.70;;;;;;5053812;28;20660;-79
2020/12/30 10:01:30;;;;;;;4.05;1.83;;;6.80;66.90;;;;;;5050031;28;20677;-78
2020/12/30 10:03:57;;;;;;;3.35;1.88;;;6.80;65.90;;;;;;5047004;28;20208;-80
2020/12/30 10:06:24;;;;;;;2.53;1.67;;;6.80;65.90;;;;;;5048822;28;20248;-78
2020/12/30 10:08:50;;;;;;;3.45;1.60;;;6.90;66.00;;;;;;5048582;28;20221;-78
2020/12/30 10:11:18;;;;;;;1.90;1.60;;;7.00;66.00;;;;;;5048913;28;20267;-80
2020/12/30 10:13:44;;;;;;;5.95;2.25;;;6.90;65.90;;;;;;5055536;28;20221;-79
2020/12/30 10:16:11;;;;;;;6.05;1.98;;;6.90;65.90;;;;;;5048464;28;20277;-79
2020/12/30 10:18:38;;;;;;;2.92;1.65;;;7.00;65.10;;;;;;5045373;28;20225;-78
2020/12/30 10:21:04;;;;;;;2.70;1.70;;;6.90;65.80;;;;;;5045236;28;20228;-80
2020/12/30 10:23:30;;;;;;;4.95;1.42;;;6.80;65.80;;;;;;5048268;28;20219;-79
2020/12/30 10:25:57;;;;;;;4.05;1.92;;;6.80;65.80;;;;;;5035477;28;20214;-80
2020/12/30 10:28:23;;;;;;;3.30;2.05;;;6.60;65.60;;;;;;5027429;28;20220;-79
2020/12/30 10:30:50;;;;;;;3.65;1.48;;;6.60;65.70;;;;;;5028020;28;20205;-80
2020/12/30 10:33:17;;;;;;;4.18;1.85;;;6.50;65.60;;;;;;5043493;28;20290;-80
2020/12/30 10:35:43;;;;;;;4.70;1.80;;;6.50;65.60;;;;;;5046843;28;20253;-79
2020/12/30 10:38:09;;;;;;;2.20;1.70;;;6.40;65.50;;;;;;5048372;28;20205;-79
2020/12/30 10:40:36;;;;;;;3.28;1.48;;;6.40;66.80;;;;;;5051703;28;20236;-79
2020/12/30 10:43:03;;;;;;;2.28;1.60;;;6.50;67.50;;;;;;5054443;28;20228;-80
2020/12/30 10:45:30;;;;;;;2.13;1.85;;;6.50;67.60;;;;;;5051760;28;20237;-80
2020/12/30 10:47:57;;;;;;;3.20;1.90;;;6.70;66.40;;;;;;5050218;28;20232;-79
2020/12/30 10:50:24;;;;;;;3.58;1.85;;;6.60;65.60;;;;;;5052351;28;20263;-82
2020/12/30 10:52:51;;;;;;;4.82;1.73;;;6.50;65.60;;;;;;5052381;28;20239;-81
2020/12/30 10:55:18;;;;;;;3.80;2.10;;;6.40;67.00;;;;;;5046822;28;20228;-80
2020/12/30 10:57:45;;;;;;;3.60;1.85;;;6.50;66.80;;;;;;5046168;28;20212;-80
2020/12/30 11:00:11;;;;;;;3.88;1.75;;;6.60;66.80;;;;;;5049116;28;20216;-80
2020/12/30 11:02:38;;;;;;;3.45;2.20;;;6.60;66.60;;;;;;5048249;28;20375;-80
2020/12/30 11:05:04;;;;;;;4.40;2.22;;;6.60;67.40;;;;;;5048621;28;20215;-80
2020/12/30 11:07:31;;;;;;;3.35;2.10;;;6.60;67.70;;;;;;5051503;28;20205;-81
2020/12/30 11:09:58;;;;;;;4.55;2.15;;;6.50;67.50;;;;;;5052012;28;20248;-80
2020/12/30 11:12:24;;;;;;;3.85;1.60;;;6.40;67.80;;;;;;5055133;28;20260;-81
2020/12/30 11:14:51;;;;;;;3.35;1.92;;;6.40;68.20;;;;;;5055088;28;20219;-80
2020/12/30 11:17:17;;;;;;;3.00;1.80;;;6.20;68.10;;;;;;5053420;28;20227;-81
2020/12/30 11:19:43;;;;;;;2.22;1.50;;;6.30;67.90;;;;;;5052338;28;20211;-80
2020/12/30 11:22:10;;;;;;;4.53;1.80;;;6.20;68.20;;;;;;5049745;28;20256;-81
2020/12/30 11:24:37;;;;;;;3.72;2.03;;;6.30;67.90;;;;;;5052073;28;20212;-79
2020/12/30 11:27:04;;;;;;;2.10;1.80;;;6.40;68.00;;;;;;5052445;28;20209;-80
2020/12/30 11:29:31;;;;;;;2.55;1.65;;;6.50;68.00;;;;;;5051840;28;20278;-80
2020/12/30 11:31:58;;;;;;;2.97;2.22;;;6.50;67.60;;;;;;5044990;28;20297;-81
2020/12/30 11:34:24;;;;;;;5.82;1.60;;;6.40;66.70;;;;;;5040672;28;20209;-82
2020/12/30 11:36:52;;;;;;;1.70;1.55;;;6.30;66.70;;;;;;5036871;28;20227;-82
2020/12/30 11:39:19;;;;;;;2.80;1.77;;;6.30;65.40;;;;;;5046851;28;20208;-81
2020/12/30 11:41:50;;;;;;;2.80;1.73;;;6.30;66.70;;;;;;5043380;28;20241;-84
2020/12/30 11:44:16;;;;;;;8.93;2.15;;;6.30;66.90;;;;;;5030388;28;20834;-82
2020/12/30 11:46:43;;;;;;;3.83;2.30;;;6.20;67.10;;;;;;5040264;28;20235;-82
2020/12/30 11:49:09;;;;;;;3.10;1.90;;;6.30;67.40;;;;;;5043602;28;20228;-82
2020/12/30 11:51:38;;;;;;;2.50;1.90;;;6.20;67.00;;;;;;5046979;28;20231;-80
2020/12/30 11:54:04;;;;;;;4.80;1.95;;;6.30;67.40;;;;;;5045859;28;20209;-81
2020/12/30 11:56:31;;;;;;;5.43;2.10;;;6.40;66.70;;;;;;5039547;28;20213;-81
2020/12/30 11:58:59;;;;;;;2.05;1.85;;;6.50;65.60;;;;;;5038098;28;20232;-81
2020/12/30 12:01:32;;;;;;;6.28;2.28;;;6.60;65.60;;;;;;5038577;28;20231;-81
2020/12/30 12:03:59;;;;;;;2.92;2.13;;;6.40;65.50;;;;;;5037794;28;20558;-80
2020/12/30 12:06:26;;;;;;;2.70;1.88;;;6.30;65.40;;;;;;5039108;28;20212;-81
2020/12/30 12:08:52;;;;;;;2.85;2.05;;;6.30;66.10;;;;;;5036731;28;20225;-80
2020/12/30 12:11:18;;;;;;;2.92;2.67;;;6.30;66.60;;;;;;5038097;28;20233;-81
2020/12/30 12:13:45;;;;;;;5.30;2.60;;;6.30;65.80;;;;;;5042130;28;20237;-83
2020/12/30 12:16:13;;;;;;;3.97;2.67;;;6.30;66.00;;;;;;5041989;28;20216;-81
2020/12/30 12:18:39;;;;;;;3.35;2.13;;;6.30;66.50;;;;;;5044568;28;20231;-81
2020/12/30 12:21:07;;;;;;;2.90;2.45;;;6.20;65.90;;;;;;5052012;28;20316;-82
2020/12/30 12:23:33;;;;;;;4.05;1.85;;;6.20;67.10;;;;;;5048482;28;20208;-81
2020/12/30 12:26:00;;;;;;;3.42;2.83;;;6.10;66.60;;;;;;5047663;28;20240;-82
2020/12/30 12:28:51;;;;;;;3.08;2.20;;;6.10;66.60;;;;;;5051916;28;20223;-81
2020/12/30 12:31:18;;;;;;;2.70;2.25;;;6.10;66.70;;;;;;5036865;28;20215;-81
2020/12/30 12:33:45;;;;;;;2.67;2.25;;;6.10;66.10;;;;;;5036688;28;20223;-80
2020/12/30 12:36:11;;;;;;;3.53;2.55;;;6.10;67.00;;;;;;5053955;28;20212;-80
2020/12/30 12:38:38;;;;;;;3.03;2.55;;;6.20;67.50;;;;;;5052850;28;20246;-81
2020/12/30 12:41:04;;;;;;;4.20;2.67;;;6.20;66.70;;;;;;5049292;28;20224;-81
2020/12/30 12:43:30;;;;;;;3.13;2.42;;;6.20;66.10;;;;;;5051687;28;20201;-81
2020/12/30 12:45:57;;;;;;;2.70;2.45;;;6.20;66.00;;;;;;5051739;28;20201;-80
2020/12/30 12:48:24;;;;;;;2.40;2.20;;;6.20;66.10;;;;;;5051439;28;20222;-80
2020/12/30 12:50:50;;;;;;;4.80;2.80;;;6.20;66.40;;;;;;5050990;28;20236;-80
2020/12/30 12:53:18;;;;;;;5.80;2.95;;;6.20;66.60;;;;;;5053289;28;20275;-81
2020/12/30 12:55:44;;;;;;;8.27;3.83;;;6.30;66.50;;;;;;5037336;28;20217;-81
2020/12/30 12:58:11;;;;;;;3.88;2.75;;;6.30;65.80;;;;;;5028417;28;20221;-81
2020/12/30 13:00:37;;;;;;;4.35;3.38;;;6.20;66.00;;;;;;5031755;28;20201;-80
2020/12/30 13:03:03;;;;;;;2.70;2.50;;;6.30;66.40;;;;;;5033341;28;20288;-79
2020/12/30 13:05:31;;;;;;;4.80;3.20;;;6.30;66.80;;;;;;5030254;28;20209;-81